• Join FlightAware (Why Join?)
  • Login
  • US Flag 
06:59AM EDT


 

Airport Tracker/Info


-or-


 

Live Flight TrackerFlight Track Log ✈ CES5799 ✈ 24-Jul-2013 ✈ ZPPP / KMG - ZHLY / LYA

Flight Track Log - Related Links

Times and Time Zones

All times are in EDT time to prevent confusion due to time zone crossing. See the CES5799 flight status page for this flight to view local times or setup timezone preferences in your user account.

Time Position Orientation Groundspeed Altitude Reporting Facility
EDT Latitude Longitude Course Direction KTS MPH feet Rate Location/Type
10:03PM 26.3704 104.0432 38° Northeast  Level Estimated
10:04PM 26.4494 104.1136 39° Northeast  Level Estimated
10:05PM 26.5284 104.1842 39° Northeast  Level Estimated
10:06PM 26.6073 104.2548 39° Northeast  Level Estimated
10:07PM 26.6862 104.3255 39° Northeast  Level Estimated
10:08PM 26.7650 104.3963 39° Northeast  Level Estimated
10:09PM 26.8438 104.4672 39° Northeast  Level Estimated
10:10PM 26.9226 104.5382 39° Northeast  Level Estimated
10:11PM 27.0014 104.6093 39° Northeast  Level Estimated
10:12PM 27.0801 104.6805 39° Northeast  Level Estimated
10:13PM 27.1588 104.7519 39° Northeast  Level Estimated
10:14PM 27.2374 104.8233 39° Northeast  Level Estimated
10:15PM 27.3160 104.8948 39° Northeast  Level Estimated
10:16PM 27.3946 104.9664 39° Northeast  Level Estimated
10:17PM 27.4731 105.0381 39° Northeast  Level Estimated
10:18PM 27.5516 105.1099 39° Northeast  Level Estimated
10:19PM 27.6301 105.1819 39° Northeast  Level Estimated
10:20PM 27.7085 105.2539 39° Northeast  Level Estimated
10:21PM 27.7869 105.3260 39° Northeast  Level Estimated
10:22PM 27.8652 105.3982 39° Northeast  Level Estimated
10:23PM 27.9435 105.4706 39° Northeast  Level Estimated
10:24PM 28.0218 105.5430 39° Northeast  Level Estimated
10:25PM 28.1000 105.6156 39° Northeast  Level Estimated
10:26PM 28.1782 105.6882 39° Northeast  Level Estimated
10:27PM 28.2564 105.7610 39° Northeast  Level Estimated
10:28PM 28.3345 105.8339 39° Northeast  Level Estimated
10:29PM 28.4126 105.9068 39° Northeast  Level Estimated
10:30PM 28.4906 105.9799 39° Northeast  Level Estimated
10:31PM 28.5686 106.0531 39° Northeast  Level Estimated
10:32PM 28.6466 106.1264 40° Northeast  Level Estimated
10:33PM 28.7245 106.1998 40° Northeast  Level Estimated
10:34PM 28.8024 106.2733 40° Northeast  Level Estimated
10:35PM 28.8802 106.3470 40° Northeast  Level Estimated
10:36PM 28.9580 106.4207 40° Northeast  Level Estimated
10:37PM 29.0358 106.4946 40° Northeast  Level Estimated
10:38PM 29.1135 106.5685 40° Northeast  Level Estimated
10:39PM 29.1912 106.6426 40° Northeast  Level Estimated
10:40PM 29.2688 106.7168 40° Northeast  Level Estimated
10:41PM 29.3464 106.7911 40° Northeast  Level Estimated
10:42PM 29.4240 106.8655 40° Northeast  Level Estimated
10:43PM 29.5015 106.9400 40° Northeast  Level Estimated
10:44PM 29.5790 107.0146 40° Northeast  Level Estimated
10:45PM 29.6564 107.0894 40° Northeast  Level Estimated
10:46PM 29.7338 107.1643 40° Northeast  Level Estimated
10:47PM 29.8111 107.2392 40° Northeast  Level Estimated
10:48PM 29.8884 107.3143 40° Northeast  Level Estimated
10:49PM 29.9657 107.3895 40° Northeast  Level Estimated
10:50PM 30.0429 107.4649 40° Northeast  Level Estimated
10:51PM 30.1201 107.5403 40° Northeast  Level Estimated
10:52PM 30.1972 107.6159 40° Northeast  Level Estimated
10:53PM 30.2743 107.6916 40° Northeast  Level Estimated
10:54PM 30.3514 107.7674 40° Northeast  Level Estimated
10:55PM 30.4284 107.8433 40° Northeast  Level Estimated
10:56PM 30.5053 107.9193 40° Northeast  Level Estimated
10:57PM 30.5823 107.9955 40° Northeast  Level Estimated
10:58PM 30.6591 108.0718 40° Northeast  Level Estimated
10:59PM 30.7360 108.1482 41° Northeast  Level Estimated
11:00PM 30.8127 108.2247 41° Northeast  Level Estimated
11:01PM 30.8895 108.3014 41° Northeast  Level Estimated
11:02PM 30.9662 108.3782 41° Northeast  Level Estimated
11:03PM 31.0428 108.4550 41° Northeast  Level Estimated
11:04PM 31.1194 108.5321 41° Northeast  Level Estimated
11:05PM 31.1960 108.6092 41° Northeast  Level Estimated
11:06PM 31.2725 108.6865 41° Northeast  Level Estimated
11:07PM 31.3489 108.7639 41° Northeast  Level Estimated
11:08PM 31.4253 108.8414 41° Northeast  Level Estimated
11:09PM 31.5017 108.9191 41° Northeast  Level Estimated
11:10PM 31.5780 108.9968 41° Northeast  Level Estimated
11:11PM 31.6543 109.0747 41° Northeast  Level Estimated
11:12PM 31.7305 109.1528 41° Northeast  Level Estimated
11:13PM 31.8067 109.2309 41° Northeast  Level Estimated
11:14PM 31.8828 109.3092 41° Northeast  Level Estimated
11:15PM 31.9589 109.3876 41° Northeast  Level Estimated
11:16PM 32.0350 109.4662 41° Northeast  Level Estimated
11:17PM 32.1110 109.5449 41° Northeast  Level Estimated
11:18PM 32.1869 109.6237 41° Northeast  Level Estimated
11:19PM 32.2628 109.7026 41° Northeast  Level Estimated
11:20PM 32.3386 109.7817 41° Northeast  Level Estimated
11:21PM 32.4144 109.8609 41° Northeast  Level Estimated
11:22PM 32.4902 109.9402 41° Northeast  Level Estimated
11:23PM 32.5658 110.0197 41° Northeast  Level Estimated
11:24PM 32.6415 110.0993 42° Northeast  Level Estimated
11:25PM 32.7171 110.1791 42° Northeast  Level Estimated
11:26PM 32.7926 110.2589 42° Northeast  Level Estimated
11:27PM 32.8681 110.3390 42° Northeast  Level Estimated
11:28PM 32.9435 110.4191 42° Northeast  Level Estimated
11:29PM 33.0189 110.4994 42° Northeast  Level Estimated
11:30PM 33.0943 110.5798 42° Northeast  Level Estimated
11:31PM 33.1696 110.6604 42° Northeast  Level Estimated
11:32PM 33.2448 110.7411 42° Northeast  Level Estimated
11:33PM 33.3200 110.8219 42° Northeast  Level Estimated
11:34PM 33.3951 110.9029 42° Northeast  Level Estimated
11:35PM 33.4702 110.9840 42° Northeast  Level Estimated
11:36PM 33.5452 111.0653 42° Northeast  Level Estimated
11:37PM 33.6202 111.1467 42° Northeast  Level Estimated
11:38PM 33.6951 111.2282 42° Northeast  Level Estimated
11:39PM 33.7699 111.3099 42° Northeast  Level Estimated
11:40PM 33.8447 111.3917 42° Northeast  Level Estimated
11:41PM 33.9195 111.4737 42° Northeast  Level Estimated
11:42PM 33.9942 111.5558 42° Northeast  Level Estimated
11:43PM 34.0688 111.6381 42° Northeast  Level Estimated
11:44PM 34.1434 111.7205 42° Northeast  Level Estimated
11:45PM 34.2244 111.8102 42° Northeast  Level Estimated
11:46PM 34.3054 111.9001 43° Northeast  Level Estimated
11:47PM 34.3863 111.9902 43° Northeast  Level Estimated
11:48PM 34.4671 112.0804 43° Northeast  Level Estimated
11:49PM 34.5478 112.1709 43° Northeast  Level Estimated
11:50PM 34.6285 112.2615 43° Northeast  Level Estimated
11:51PM 34.7091 112.3522 43° Northeast  Level Estimated
11:52PM 34.7411 112.3883 43° Northeast  Level Estimated
11:53PM 34.7411 112.3883 68° East  Level Estimated
11:54PM 34.7411 112.3883 68° East  Level Estimated
11:55PM 34.7411 112.3883 68° East  Level Estimated
11:56PM 34.7411 112.3883 68° East  Level Estimated
11:57PM 34.7411 112.3883 68° East  Level Estimated
11:58PM 34.7411 112.3883 68° East  Level Estimated